sensor_id;sensor_type;location;lat;lon;timestamp;P1;durP1;ratioP1;P2;durP2;ratioP2
54177;SDS011;40085;53.004;6.770;2023-07-09T00:02:20;12.05;;;6.72;;
54177;SDS011;40085;53.004;6.770;2023-07-09T00:04:47;11.90;;;8.15;;
54177;SDS011;40085;53.004;6.770;2023-07-09T00:07:26;10.38;;;7.03;;
54177;SDS011;40085;53.004;6.770;2023-07-09T00:09:54;9.15;;;7.32;;
54177;SDS011;40085;53.004;6.770;2023-07-09T00:12:20;9.63;;;7.25;;
54177;SDS011;40085;53.004;6.770;2023-07-09T00:14:47;12.63;;;7.05;;
54177;SDS011;40085;53.004;6.770;2023-07-09T00:17:19;12.00;;;6.45;;
54177;SDS011;40085;53.004;6.770;2023-07-09T00:19:50;11.43;;;7.28;;
54177;SDS011;40085;53.004;6.770;2023-07-09T00:22:17;8.55;;;6.18;;
54177;SDS011;40085;53.004;6.770;2023-07-09T00:24:44;8.57;;;6.60;;
54177;SDS011;40085;53.004;6.770;2023-07-09T00:27:12;10.18;;;6.75;;
54177;SDS011;40085;53.004;6.770;2023-07-09T00:29:40;7.47;;;5.93;;
54177;SDS011;40085;53.004;6.770;2023-07-09T00:32:15;11.10;;;7.35;;
54177;SDS011;40085;53.004;6.770;2023-07-09T00:34:45;11.68;;;6.60;;
54177;SDS011;40085;53.004;6.770;2023-07-09T00:37:14;10.40;;;7.00;;
54177;SDS011;40085;53.004;6.770;2023-07-09T00:39:41;8.68;;;6.80;;
54177;SDS011;40085;53.004;6.770;2023-07-09T00:42:14;10.63;;;6.95;;
54177;SDS011;40085;53.004;6.770;2023-07-09T00:44:42;9.98;;;7.32;;
54177;SDS011;40085;53.004;6.770;2023-07-09T00:47:22;8.35;;;5.68;;
54177;SDS011;40085;53.004;6.770;2023-07-09T00:53:02;11.80;;;5.90;;
54177;SDS011;40085;53.004;6.770;2023-07-09T00:55:44;12.18;;;6.45;;
54177;SDS011;40085;53.004;6.770;2023-07-09T00:58:15;7.90;;;5.85;;
54177;SDS011;40085;53.004;6.770;2023-07-09T01:00:43;10.18;;;6.68;;
54177;SDS011;40085;53.004;6.770;2023-07-09T01:03:13;13.10;;;6.28;;
54177;SDS011;40085;53.004;6.770;2023-07-09T01:05:45;7.93;;;6.35;;
54177;SDS011;40085;53.004;6.770;2023-07-09T01:08:16;8.00;;;6.15;;
54177;SDS011;40085;53.004;6.770;2023-07-09T01:10:43;9.25;;;6.35;;
54177;SDS011;40085;53.004;6.770;2023-07-09T01:13:09;9.45;;;6.18;;
54177;SDS011;40085;53.004;6.770;2023-07-09T01:15:35;9.60;;;6.55;;
54177;SDS011;40085;53.004;6.770;2023-07-09T01:18:03;8.63;;;5.50;;
54177;SDS011;40085;53.004;6.770;2023-07-09T01:20:29;8.05;;;5.85;;
54177;SDS011;40085;53.004;6.770;2023-07-09T01:22:55;10.63;;;5.80;;
54177;SDS011;40085;53.004;6.770;2023-07-09T01:25:22;6.93;;;5.65;;
54177;SDS011;40085;53.004;6.770;2023-07-09T01:27:48;7.70;;;6.03;;
54177;SDS011;40085;53.004;6.770;2023-07-09T01:32:50;10.13;;;6.30;;
54177;SDS011;40085;53.004;6.770;2023-07-09T01:35:17;7.22;;;6.15;;
54177;SDS011;40085;53.004;6.770;2023-07-09T01:37:45;10.18;;;5.95;;
54177;SDS011;40085;53.004;6.770;2023-07-09T01:40:12;7.88;;;6.65;;
54177;SDS011;40085;53.004;6.770;2023-07-09T01:42:40;8.82;;;6.35;;
54177;SDS011;40085;53.004;6.770;2023-07-09T01:45:06;10.88;;;6.80;;
54177;SDS011;40085;53.004;6.770;2023-07-09T01:47:35;7.72;;;5.82;;
54177;SDS011;40085;53.004;6.770;2023-07-09T01:50:01;10.05;;;6.05;;
54177;SDS011;40085;53.004;6.770;2023-07-09T01:52:28;8.15;;;5.95;;
54177;SDS011;40085;53.004;6.770;2023-07-09T01:54:56;9.52;;;5.72;;
54177;SDS011;40085;53.004;6.770;2023-07-09T01:57:22;8.45;;;6.32;;
54177;SDS011;40085;53.004;6.770;2023-07-09T01:59:53;8.75;;;6.60;;
54177;SDS011;40085;53.004;6.770;2023-07-09T02:02:20;9.43;;;6.57;;
54177;SDS011;40085;53.004;6.770;2023-07-09T02:04:47;8.57;;;6.00;;
54177;SDS011;40085;53.004;6.770;2023-07-09T02:07:14;9.23;;;6.95;;
54177;SDS011;40085;53.004;6.770;2023-07-09T02:09:41;9.38;;;6.32;;
54177;SDS011;40085;53.004;6.770;2023-07-09T02:12:07;8.30;;;6.35;;
54177;SDS011;40085;53.004;6.770;2023-07-09T02:14:34;9.70;;;6.25;;
54177;SDS011;40085;53.004;6.770;2023-07-09T02:17:00;9.20;;;5.85;;
54177;SDS011;40085;53.004;6.770;2023-07-09T02:19:27;8.48;;;6.75;;
54177;SDS011;40085;53.004;6.770;2023-07-09T02:21:54;9.85;;;5.75;;
54177;SDS011;40085;53.004;6.770;2023-07-09T02:24:20;9.93;;;6.15;;
54177;SDS011;40085;53.004;6.770;2023-07-09T02:26:49;8.68;;;5.93;;
54177;SDS011;40085;53.004;6.770;2023-07-09T02:29:25;9.70;;;5.63;;
54177;SDS011;40085;53.004;6.770;2023-07-09T02:31:55;7.97;;;5.85;;
54177;SDS011;40085;53.004;6.770;2023-07-09T02:34:23;9.40;;;5.55;;
54177;SDS011;40085;53.004;6.770;2023-07-09T02:36:54;8.63;;;6.65;;
54177;SDS011;40085;53.004;6.770;2023-07-09T02:39:21;8.18;;;6.50;;
54177;SDS011;40085;53.004;6.770;2023-07-09T02:41:48;9.38;;;6.60;;
54177;SDS011;40085;53.004;6.770;2023-07-09T02:44:14;8.80;;;6.57;;
54177;SDS011;40085;53.004;6.770;2023-07-09T02:46:40;11.82;;;6.05;;
54177;SDS011;40085;53.004;6.770;2023-07-09T02:49:06;7.90;;;5.55;;
54177;SDS011;40085;53.004;6.770;2023-07-09T02:51:37;8.65;;;5.60;;
54177;SDS011;40085;53.004;6.770;2023-07-09T02:54:04;8.38;;;6.30;;
54177;SDS011;40085;53.004;6.770;2023-07-09T02:56:30;8.00;;;5.95;;
54177;SDS011;40085;53.004;6.770;2023-07-09T02:58:56;8.10;;;6.25;;
54177;SDS011;40085;53.004;6.770;2023-07-09T03:01:22;7.57;;;5.60;;
54177;SDS011;40085;53.004;6.770;2023-07-09T03:03:52;9.55;;;6.10;;
54177;SDS011;40085;53.004;6.770;2023-07-09T03:06:19;9.48;;;6.30;;
54177;SDS011;40085;53.004;6.770;2023-07-09T03:08:48;9.90;;;6.05;;
54177;SDS011;40085;53.004;6.770;2023-07-09T03:11:15;7.63;;;5.65;;
54177;SDS011;40085;53.004;6.770;2023-07-09T03:13:41;10.35;;;6.13;;
54177;SDS011;40085;53.004;6.770;2023-07-09T03:16:07;8.43;;;6.15;;
54177;SDS011;40085;53.004;6.770;2023-07-09T03:18:32;9.82;;;6.22;;
54177;SDS011;40085;53.004;6.770;2023-07-09T03:20:58;8.57;;;6.30;;
54177;SDS011;40085;53.004;6.770;2023-07-09T03:23:24;8.65;;;5.90;;
54177;SDS011;40085;53.004;6.770;2023-07-09T03:25:50;7.80;;;5.85;;
54177;SDS011;40085;53.004;6.770;2023-07-09T03:28:16;9.93;;;6.07;;
54177;SDS011;40085;53.004;6.770;2023-07-09T03:30:43;8.95;;;6.05;;
54177;SDS011;40085;53.004;6.770;2023-07-09T03:33:10;7.45;;;6.00;;
54177;SDS011;40085;53.004;6.770;2023-07-09T03:35:37;7.05;;;5.88;;
54177;SDS011;40085;53.004;6.770;2023-07-09T03:38:06;10.23;;;6.18;;
54177;SDS011;40085;53.004;6.770;2023-07-09T03:40:32;7.80;;;6.03;;
54177;SDS011;40085;53.004;6.770;2023-07-09T03:42:58;11.32;;;6.63;;
54177;SDS011;40085;53.004;6.770;2023-07-09T03:45:24;9.27;;;6.90;;
54177;SDS011;40085;53.004;6.770;2023-07-09T03:47:50;9.85;;;6.15;;
54177;SDS011;40085;53.004;6.770;2023-07-09T03:50:16;7.88;;;5.85;;
54177;SDS011;40085;53.004;6.770;2023-07-09T03:52:41;8.90;;;6.50;;
54177;SDS011;40085;53.004;6.770;2023-07-09T03:55:07;9.27;;;6.30;;
54177;SDS011;40085;53.004;6.770;2023-07-09T03:57:33;8.38;;;6.32;;
54177;SDS011;40085;53.004;6.770;2023-07-09T04:00:00;12.38;;;6.22;;
54177;SDS011;40085;53.004;6.770;2023-07-09T04:02:27;11.07;;;7.10;;
54177;SDS011;40085;53.004;6.770;2023-07-09T04:04:53;7.82;;;6.13;;
54177;SDS011;40085;53.004;6.770;2023-07-09T04:07:19;9.00;;;6.20;;
54177;SDS011;40085;53.004;6.770;2023-07-09T04:09:45;9.15;;;6.20;;
54177;SDS011;40085;53.004;6.770;2023-07-09T04:12:10;10.65;;;6.72;;
54177;SDS011;40085;53.004;6.770;2023-07-09T04:14:36;7.50;;;6.40;;
54177;SDS011;40085;53.004;6.770;2023-07-09T04:17:02;10.40;;;6.85;;
54177;SDS011;40085;53.004;6.770;2023-07-09T04:19:28;8.88;;;6.75;;
54177;SDS011;40085;53.004;6.770;2023-07-09T04:21:54;9.93;;;6.78;;
54177;SDS011;40085;53.004;6.770;2023-07-09T04:24:20;9.70;;;6.32;;
54177;SDS011;40085;53.004;6.770;2023-07-09T04:26:47;9.73;;;6.32;;
54177;SDS011;40085;53.004;6.770;2023-07-09T04:29:12;10.82;;;6.85;;
54177;SDS011;40085;53.004;6.770;2023-07-09T04:31:39;10.18;;;6.43;;
54177;SDS011;40085;53.004;6.770;2023-07-09T04:34:05;7.97;;;6.22;;
54177;SDS011;40085;53.004;6.770;2023-07-09T04:36:31;8.43;;;6.18;;
54177;SDS011;40085;53.004;6.770;2023-07-09T04:38:57;8.88;;;6.13;;
54177;SDS011;40085;53.004;6.770;2023-07-09T04:41:23;7.63;;;5.93;;
54177;SDS011;40085;53.004;6.770;2023-07-09T04:43:48;12.20;;;6.45;;
54177;SDS011;40085;53.004;6.770;2023-07-09T04:46:14;10.85;;;6.50;;
54177;SDS011;40085;53.004;6.770;2023-07-09T04:48:40;9.77;;;5.70;;
54177;SDS011;40085;53.004;6.770;2023-07-09T04:51:06;9.40;;;6.40;;
54177;SDS011;40085;53.004;6.770;2023-07-09T04:53:31;7.95;;;6.03;;
54177;SDS011;40085;53.004;6.770;2023-07-09T04:55:57;11.82;;;6.45;;
54177;SDS011;40085;53.004;6.770;2023-07-09T04:58:23;9.43;;;6.43;;
54177;SDS011;40085;53.004;6.770;2023-07-09T05:00:49;9.18;;;5.78;;
54177;SDS011;40085;53.004;6.770;2023-07-09T05:03:20;9.75;;;6.45;;
54177;SDS011;40085;53.004;6.770;2023-07-09T05:05:46;8.60;;;6.18;;
54177;SDS011;40085;53.004;6.770;2023-07-09T05:08:12;9.57;;;6.10;;
54177;SDS011;40085;53.004;6.770;2023-07-09T05:10:41;10.10;;;5.75;;
54177;SDS011;40085;53.004;6.770;2023-07-09T05:13:07;8.23;;;6.32;;
54177;SDS011;40085;53.004;6.770;2023-07-09T05:15:33;7.75;;;6.38;;
54177;SDS011;40085;53.004;6.770;2023-07-09T05:17:59;9.95;;;6.30;;
54177;SDS011;40085;53.004;6.770;2023-07-09T05:20:25;8.65;;;5.95;;
54177;SDS011;40085;53.004;6.770;2023-07-09T05:22:50;10.43;;;6.10;;
54177;SDS011;40085;53.004;6.770;2023-07-09T05:25:16;9.60;;;6.75;;
54177;SDS011;40085;53.004;6.770;2023-07-09T05:27:43;7.85;;;6.18;;
54177;SDS011;40085;53.004;6.770;2023-07-09T05:30:08;8.70;;;6.30;;
54177;SDS011;40085;53.004;6.770;2023-07-09T05:32:36;10.43;;;6.18;;
54177;SDS011;40085;53.004;6.770;2023-07-09T05:35:02;8.38;;;6.05;;
54177;SDS011;40085;53.004;6.770;2023-07-09T05:37:28;9.82;;;6.18;;
54177;SDS011;40085;53.004;6.770;2023-07-09T05:39:53;10.43;;;6.30;;
54177;SDS011;40085;53.004;6.770;2023-07-09T05:42:19;8.35;;;5.80;;
54177;SDS011;40085;53.004;6.770;2023-07-09T05:44:45;8.90;;;6.30;;
54177;SDS011;40085;53.004;6.770;2023-07-09T05:47:11;12.20;;;6.15;;
54177;SDS011;40085;53.004;6.770;2023-07-09T05:49:37;7.90;;;5.90;;
54177;SDS011;40085;53.004;6.770;2023-07-09T05:52:04;10.18;;;5.68;;
54177;SDS011;40085;53.004;6.770;2023-07-09T05:54:30;7.55;;;5.78;;
54177;SDS011;40085;53.004;6.770;2023-07-09T05:56:56;8.07;;;5.90;;
54177;SDS011;40085;53.004;6.770;2023-07-09T05:59:21;9.88;;;7.05;;
54177;SDS011;40085;53.004;6.770;2023-07-09T06:01:47;10.73;;;5.70;;
54177;SDS011;40085;53.004;6.770;2023-07-09T06:04:13;11.48;;;5.78;;
54177;SDS011;40085;53.004;6.770;2023-07-09T06:06:39;11.73;;;6.70;;
54177;SDS011;40085;53.004;6.770;2023-07-09T06:09:06;8.98;;;5.85;;
54177;SDS011;40085;53.004;6.770;2023-07-09T06:11:33;9.82;;;6.30;;
54177;SDS011;40085;53.004;6.770;2023-07-09T06:13:59;11.48;;;6.28;;
54177;SDS011;40085;53.004;6.770;2023-07-09T06:16:25;9.23;;;6.07;;
54177;SDS011;40085;53.004;6.770;2023-07-09T06:18:51;10.00;;;6.78;;
54177;SDS011;40085;53.004;6.770;2023-07-09T06:21:16;9.65;;;7.00;;
54177;SDS011;40085;53.004;6.770;2023-07-09T06:23:42;9.68;;;7.20;;
54177;SDS011;40085;53.004;6.770;2023-07-09T06:26:07;8.75;;;6.70;;
54177;SDS011;40085;53.004;6.770;2023-07-09T06:28:33;13.27;;;7.78;;
54177;SDS011;40085;53.004;6.770;2023-07-09T06:30:59;17.20;;;8.27;;
54177;SDS011;40085;53.004;6.770;2023-07-09T06:33:25;14.93;;;9.13;;
54177;SDS011;40085;53.004;6.770;2023-07-09T06:35:54;12.88;;;8.25;;
54177;SDS011;40085;53.004;6.770;2023-07-09T06:38:25;13.93;;;9.27;;
54177;SDS011;40085;53.004;6.770;2023-07-09T06:40:51;12.73;;;9.18;;
54177;SDS011;40085;53.004;6.770;2023-07-09T06:43:17;13.68;;;9.32;;
54177;SDS011;40085;53.004;6.770;2023-07-09T06:45:50;12.43;;;8.43;;
54177;SDS011;40085;53.004;6.770;2023-07-09T06:48:21;15.38;;;8.20;;
54177;SDS011;40085;53.004;6.770;2023-07-09T06:50:47;16.00;;;8.73;;
54177;SDS011;40085;53.004;6.770;2023-07-09T06:53:13;11.50;;;8.25;;
54177;SDS011;40085;53.004;6.770;2023-07-09T06:55:39;12.52;;;7.97;;
54177;SDS011;40085;53.004;6.770;2023-07-09T06:58:05;12.68;;;8.48;;
54177;SDS011;40085;53.004;6.770;2023-07-09T07:00:31;10.63;;;7.63;;
54177;SDS011;40085;53.004;6.770;2023-07-09T07:02:58;17.48;;;7.63;;
54177;SDS011;40085;53.004;6.770;2023-07-09T07:05:23;10.50;;;7.68;;
54177;SDS011;40085;53.004;6.770;2023-07-09T07:07:49;12.23;;;7.22;;
54177;SDS011;40085;53.004;6.770;2023-07-09T07:10:15;9.50;;;6.82;;
54177;SDS011;40085;53.004;6.770;2023-07-09T07:12:44;9.35;;;6.30;;
54177;SDS011;40085;53.004;6.770;2023-07-09T07:15:13;8.77;;;6.80;;
54177;SDS011;40085;53.004;6.770;2023-07-09T07:17:40;10.43;;;7.50;;
54177;SDS011;40085;53.004;6.770;2023-07-09T07:20:06;11.50;;;6.60;;
54177;SDS011;40085;53.004;6.770;2023-07-09T07:22:33;9.88;;;7.10;;
54177;SDS011;40085;53.004;6.770;2023-07-09T07:24:58;10.27;;;6.45;;
54177;SDS011;40085;53.004;6.770;2023-07-09T07:27:24;10.48;;;5.80;;
54177;SDS011;40085;53.004;6.770;2023-07-09T07:29:49;12.57;;;6.55;;
54177;SDS011;40085;53.004;6.770;2023-07-09T07:32:15;9.77;;;6.60;;
54177;SDS011;40085;53.004;6.770;2023-07-09T07:34:40;8.82;;;6.20;;
54177;SDS011;40085;53.004;6.770;2023-07-09T07:37:06;13.07;;;7.15;;
54177;SDS011;40085;53.004;6.770;2023-07-09T07:39:31;8.55;;;6.03;;
54177;SDS011;40085;53.004;6.770;2023-07-09T07:41:57;10.55;;;5.93;;
54177;SDS011;40085;53.004;6.770;2023-07-09T07:44:23;8.95;;;6.00;;
54177;SDS011;40085;53.004;6.770;2023-07-09T07:46:49;8.57;;;6.18;;
54177;SDS011;40085;53.004;6.770;2023-07-09T07:49:14;8.45;;;5.40;;
54177;SDS011;40085;53.004;6.770;2023-07-09T07:51:40;8.95;;;6.18;;
54177;SDS011;40085;53.004;6.770;2023-07-09T07:54:06;12.23;;;5.93;;
54177;SDS011;40085;53.004;6.770;2023-07-09T07:56:35;11.50;;;6.45;;
54177;SDS011;40085;53.004;6.770;2023-07-09T07:59:02;10.00;;;6.05;;
54177;SDS011;40085;53.004;6.770;2023-07-09T08:01:28;10.80;;;5.88;;
54177;SDS011;40085;53.004;6.770;2023-07-09T08:03:54;11.63;;;5.88;;
54177;SDS011;40085;53.004;6.770;2023-07-09T08:06:20;8.48;;;6.07;;
54177;SDS011;40085;53.004;6.770;2023-07-09T08:08:46;10.77;;;5.40;;
54177;SDS011;40085;53.004;6.770;2023-07-09T08:11:13;11.15;;;5.82;;
54177;SDS011;40085;53.004;6.770;2023-07-09T08:13:39;10.20;;;5.85;;
54177;SDS011;40085;53.004;6.770;2023-07-09T08:16:05;9.35;;;5.85;;
54177;SDS011;40085;53.004;6.770;2023-07-09T08:18:32;10.23;;;5.70;;
54177;SDS011;40085;53.004;6.770;2023-07-09T08:20:58;9.70;;;5.70;;
54177;SDS011;40085;53.004;6.770;2023-07-09T08:23:24;9.02;;;6.28;;
54177;SDS011;40085;53.004;6.770;2023-07-09T08:25:56;7.72;;;5.53;;
54177;SDS011;40085;53.004;6.770;2023-07-09T08:28:23;8.15;;;6.00;;
54177;SDS011;40085;53.004;6.770;2023-07-09T08:30:53;7.85;;;5.93;;
54177;SDS011;40085;53.004;6.770;2023-07-09T08:33:19;5.60;;;5.00;;
54177;SDS011;40085;53.004;6.770;2023-07-09T08:35:45;7.63;;;5.18;;
54177;SDS011;40085;53.004;6.770;2023-07-09T08:38:10;8.93;;;4.88;;
54177;SDS011;40085;53.004;6.770;2023-07-09T08:40:39;9.90;;;5.22;;
54177;SDS011;40085;53.004;6.770;2023-07-09T08:48:49;9.30;;;5.63;;
54177;SDS011;40085;53.004;6.770;2023-07-09T08:51:19;10.13;;;5.35;;
54177;SDS011;40085;53.004;6.770;2023-07-09T08:54:09;8.73;;;5.32;;
54177;SDS011;40085;53.004;6.770;2023-07-09T08:56:47;7.55;;;5.28;;
54177;SDS011;40085;53.004;6.770;2023-07-09T08:59:14;7.93;;;6.18;;
54177;SDS011;40085;53.004;6.770;2023-07-09T09:01:46;7.35;;;5.70;;
54177;SDS011;40085;53.004;6.770;2023-07-09T09:04:25;8.20;;;5.03;;
54177;SDS011;40085;53.004;6.770;2023-07-09T09:09:46;7.78;;;5.00;;
54177;SDS011;40085;53.004;6.770;2023-07-09T09:12:21;11.00;;;5.40;;
54177;SDS011;40085;53.004;6.770;2023-07-09T09:15:10;8.23;;;4.88;;
54177;SDS011;40085;53.004;6.770;2023-07-09T09:17:40;7.35;;;4.70;;
54177;SDS011;40085;53.004;6.770;2023-07-09T09:20:16;9.05;;;5.05;;
54177;SDS011;40085;53.004;6.770;2023-07-09T09:25:31;9.60;;;5.22;;
54177;SDS011;40085;53.004;6.770;2023-07-09T09:28:01;5.75;;;4.30;;
54177;SDS011;40085;53.004;6.770;2023-07-09T09:30:27;6.82;;;5.20;;
54177;SDS011;40085;53.004;6.770;2023-07-09T09:35:32;8.40;;;5.57;;
54177;SDS011;40085;53.004;6.770;2023-07-09T09:38:00;9.88;;;5.00;;
54177;SDS011;40085;53.004;6.770;2023-07-09T09:40:28;8.93;;;5.43;;
54177;SDS011;40085;53.004;6.770;2023-07-09T09:42:58;7.03;;;5.00;;
54177;SDS011;40085;53.004;6.770;2023-07-09T09:45:28;7.65;;;5.13;;
54177;SDS011;40085;53.004;6.770;2023-07-09T09:48:10;6.05;;;4.65;;
54177;SDS011;40085;53.004;6.770;2023-07-09T09:50:39;8.43;;;4.93;;
54177;SDS011;40085;53.004;6.770;2023-07-09T09:53:07;6.15;;;5.03;;
54177;SDS011;40085;53.004;6.770;2023-07-09T09:55:33;8.23;;;5.20;;
54177;SDS011;40085;53.004;6.770;2023-07-09T09:57:59;7.85;;;4.68;;
54177;SDS011;40085;53.004;6.770;2023-07-09T10:00:26;11.63;;;5.68;;
54177;SDS011;40085;53.004;6.770;2023-07-09T10:02:57;12.38;;;5.80;;
54177;SDS011;40085;53.004;6.770;2023-07-09T10:05:27;8.52;;;5.60;;
54177;SDS011;40085;53.004;6.770;2023-07-09T10:08:08;16.30;;;5.03;;
54177;SDS011;40085;53.004;6.770;2023-07-09T10:10:34;9.95;;;4.63;;
54177;SDS011;40085;53.004;6.770;2023-07-09T10:21:10;8.65;;;5.53;;
54177;SDS011;40085;53.004;6.770;2023-07-09T10:26:32;11.00;;;5.43;;
54177;SDS011;40085;53.004;6.770;2023-07-09T10:38:04;8.75;;;5.53;;
54177;SDS011;40085;53.004;6.770;2023-07-09T10:40:45;9.05;;;4.95;;
54177;SDS011;40085;53.004;6.770;2023-07-09T10:43:36;8.50;;;5.32;;
54177;SDS011;40085;53.004;6.770;2023-07-09T10:46:14;6.88;;;4.75;;
54177;SDS011;40085;53.004;6.770;2023-07-09T10:48:42;8.75;;;4.93;;
54177;SDS011;40085;53.004;6.770;2023-07-09T10:51:15;7.28;;;5.18;;
54177;SDS011;40085;53.004;6.770;2023-07-09T10:53:50;7.90;;;5.07;;
54177;SDS011;40085;53.004;6.770;2023-07-09T10:56:21;8.25;;;4.93;;
54177;SDS011;40085;53.004;6.770;2023-07-09T10:58:57;6.88;;;4.80;;
54177;SDS011;40085;53.004;6.770;2023-07-09T11:01:33;6.25;;;4.47;;
54177;SDS011;40085;53.004;6.770;2023-07-09T11:04:05;6.95;;;5.00;;
54177;SDS011;40085;53.004;6.770;2023-07-09T11:06:39;6.93;;;5.07;;
54177;SDS011;40085;53.004;6.770;2023-07-09T11:09:26;7.00;;;4.97;;
54177;SDS011;40085;53.004;6.770;2023-07-09T11:11:57;9.35;;;5.55;;
54177;SDS011;40085;53.004;6.770;2023-07-09T11:14:32;6.60;;;4.60;;
54177;SDS011;40085;53.004;6.770;2023-07-09T11:17:03;8.18;;;5.55;;
54177;SDS011;40085;53.004;6.770;2023-07-09T11:19:31;9.05;;;5.68;;
54177;SDS011;40085;53.004;6.770;2023-07-09T11:21:57;9.07;;;5.13;;
54177;SDS011;40085;53.004;6.770;2023-07-09T11:24:29;6.50;;;4.95;;
54177;SDS011;40085;53.004;6.770;2023-07-09T11:27:00;6.45;;;4.97;;
54177;SDS011;40085;53.004;6.770;2023-07-09T11:29:26;7.55;;;5.15;;
54177;SDS011;40085;53.004;6.770;2023-07-09T11:31:54;7.57;;;4.93;;
54177;SDS011;40085;53.004;6.770;2023-07-09T11:34:20;8.35;;;4.57;;
54177;SDS011;40085;53.004;6.770;2023-07-09T11:36:59;9.80;;;5.35;;
54177;SDS011;40085;53.004;6.770;2023-07-09T11:39:30;11.13;;;4.95;;
54177;SDS011;40085;53.004;6.770;2023-07-09T11:45:16;9.10;;;4.70;;
54177;SDS011;40085;53.004;6.770;2023-07-09T11:47:50;9.75;;;4.57;;
54177;SDS011;40085;53.004;6.770;2023-07-09T11:58:12;7.53;;;4.88;;
54177;SDS011;40085;53.004;6.770;2023-07-09T12:00:54;7.97;;;4.63;;
54177;SDS011;40085;53.004;6.770;2023-07-09T12:03:28;5.70;;;4.07;;
54177;SDS011;40085;53.004;6.770;2023-07-09T12:08:38;7.25;;;3.45;;
54177;SDS011;40085;53.004;6.770;2023-07-09T12:11:17;7.40;;;3.80;;
54177;SDS011;40085;53.004;6.770;2023-07-09T12:13:51;7.25;;;4.20;;
54177;SDS011;40085;53.004;6.770;2023-07-09T12:16:37;5.40;;;3.85;;
54177;SDS011;40085;53.004;6.770;2023-07-09T12:19:05;7.57;;;4.10;;
54177;SDS011;40085;53.004;6.770;2023-07-09T12:21:33;5.05;;;3.53;;
54177;SDS011;40085;53.004;6.770;2023-07-09T12:24:02;6.68;;;3.83;;
54177;SDS011;40085;53.004;6.770;2023-07-09T12:26:38;7.85;;;4.28;;
54177;SDS011;40085;53.004;6.770;2023-07-09T12:29:04;8.27;;;3.67;;
54177;SDS011;40085;53.004;6.770;2023-07-09T12:31:34;5.60;;;3.85;;
54177;SDS011;40085;53.004;6.770;2023-07-09T12:33:59;6.45;;;3.80;;
54177;SDS011;40085;53.004;6.770;2023-07-09T12:36:25;5.35;;;3.90;;
54177;SDS011;40085;53.004;6.770;2023-07-09T12:38:53;4.90;;;4.00;;
54177;SDS011;40085;53.004;6.770;2023-07-09T12:46:21;5.57;;;4.05;;
54177;SDS011;40085;53.004;6.770;2023-07-09T12:48:47;6.45;;;3.88;;
54177;SDS011;40085;53.004;6.770;2023-07-09T12:51:16;6.50;;;4.00;;
54177;SDS011;40085;53.004;6.770;2023-07-09T12:53:46;8.43;;;3.80;;
54177;SDS011;40085;53.004;6.770;2023-07-09T12:56:13;4.82;;;3.80;;
54177;SDS011;40085;53.004;6.770;2023-07-09T13:01:15;10.38;;;4.32;;
54177;SDS011;40085;53.004;6.770;2023-07-09T13:03:51;6.32;;;4.45;;
54177;SDS011;40085;53.004;6.770;2023-07-09T13:06:26;7.65;;;3.90;;
54177;SDS011;40085;53.004;6.770;2023-07-09T13:08:59;8.85;;;4.00;;
54177;SDS011;40085;53.004;6.770;2023-07-09T13:11:26;4.55;;;3.72;;
54177;SDS011;40085;53.004;6.770;2023-07-09T13:14:11;7.07;;;3.97;;
54177;SDS011;40085;53.004;6.770;2023-07-09T13:17:05;6.53;;;4.60;;
54177;SDS011;40085;53.004;6.770;2023-07-09T13:19:32;6.05;;;3.55;;
54177;SDS011;40085;53.004;6.770;2023-07-09T13:21:58;6.90;;;4.15;;
54177;SDS011;40085;53.004;6.770;2023-07-09T13:24:24;4.18;;;3.42;;
54177;SDS011;40085;53.004;6.770;2023-07-09T13:26:53;5.45;;;4.05;;
54177;SDS011;40085;53.004;6.770;2023-07-09T13:29:19;8.18;;;3.92;;
54177;SDS011;40085;53.004;6.770;2023-07-09T13:31:45;5.78;;;3.83;;
54177;SDS011;40085;53.004;6.770;2023-07-09T13:34:25;5.93;;;3.72;;
54177;SDS011;40085;53.004;6.770;2023-07-09T13:36:53;6.85;;;3.85;;
54177;SDS011;40085;53.004;6.770;2023-07-09T13:39:22;6.80;;;4.05;;
54177;SDS011;40085;53.004;6.770;2023-07-09T13:41:49;6.43;;;4.45;;
54177;SDS011;40085;53.004;6.770;2023-07-09T13:44:16;5.20;;;4.05;;
54177;SDS011;40085;53.004;6.770;2023-07-09T13:46:44;8.50;;;4.07;;
54177;SDS011;40085;53.004;6.770;2023-07-09T13:49:11;6.95;;;3.92;;
54177;SDS011;40085;53.004;6.770;2023-07-09T13:51:39;10.73;;;4.15;;
54177;SDS011;40085;53.004;6.770;2023-07-09T13:54:09;7.10;;;3.88;;
54177;SDS011;40085;53.004;6.770;2023-07-09T13:56:39;8.23;;;4.10;;
54177;SDS011;40085;53.004;6.770;2023-07-09T13:59:10;7.07;;;4.45;;
54177;SDS011;40085;53.004;6.770;2023-07-09T14:01:37;6.50;;;4.25;;
54177;SDS011;40085;53.004;6.770;2023-07-09T14:04:03;6.47;;;4.30;;
54177;SDS011;40085;53.004;6.770;2023-07-09T14:06:29;6.25;;;4.03;;
54177;SDS011;40085;53.004;6.770;2023-07-09T14:08:55;8.85;;;4.43;;
54177;SDS011;40085;53.004;6.770;2023-07-09T14:11:20;6.53;;;4.53;;
54177;SDS011;40085;53.004;6.770;2023-07-09T14:13:46;9.77;;;3.83;;
54177;SDS011;40085;53.004;6.770;2023-07-09T14:16:12;8.10;;;3.90;;
54177;SDS011;40085;53.004;6.770;2023-07-09T14:18:40;8.68;;;3.45;;
54177;SDS011;40085;53.004;6.770;2023-07-09T14:21:10;5.55;;;4.28;;
54177;SDS011;40085;53.004;6.770;2023-07-09T14:23:42;5.93;;;3.72;;
54177;SDS011;40085;53.004;6.770;2023-07-09T14:26:09;8.38;;;3.90;;
54177;SDS011;40085;53.004;6.770;2023-07-09T14:28:35;6.60;;;3.88;;
54177;SDS011;40085;53.004;6.770;2023-07-09T14:31:03;4.70;;;3.60;;
54177;SDS011;40085;53.004;6.770;2023-07-09T14:33:38;5.22;;;3.60;;
54177;SDS011;40085;53.004;6.770;2023-07-09T14:36:04;6.45;;;4.13;;
54177;SDS011;40085;53.004;6.770;2023-07-09T14:38:30;5.47;;;3.70;;
54177;SDS011;40085;53.004;6.770;2023-07-09T14:40:56;6.38;;;4.03;;
54177;SDS011;40085;53.004;6.770;2023-07-09T14:43:24;6.03;;;4.15;;
54177;SDS011;40085;53.004;6.770;2023-07-09T14:45:50;9.18;;;3.85;;
54177;SDS011;40085;53.004;6.770;2023-07-09T14:48:19;5.82;;;3.63;;
54177;SDS011;40085;53.004;6.770;2023-07-09T14:50:46;9.00;;;4.25;;
54177;SDS011;40085;53.004;6.770;2023-07-09T14:53:23;7.20;;;3.88;;
54177;SDS011;40085;53.004;6.770;2023-07-09T14:55:52;13.90;;;3.67;;
54177;SDS011;40085;53.004;6.770;2023-07-09T14:58:22;8.57;;;4.40;;
54177;SDS011;40085;53.004;6.770;2023-07-09T15:00:48;8.93;;;3.85;;
54177;SDS011;40085;53.004;6.770;2023-07-09T15:03:18;8.68;;;4.88;;
54177;SDS011;40085;53.004;6.770;2023-07-09T15:05:45;5.47;;;3.92;;
54177;SDS011;40085;53.004;6.770;2023-07-09T15:08:12;5.57;;;4.05;;
54177;SDS011;40085;53.004;6.770;2023-07-09T15:10:39;6.10;;;3.85;;
54177;SDS011;40085;53.004;6.770;2023-07-09T15:13:05;5.88;;;3.70;;
54177;SDS011;40085;53.004;6.770;2023-07-09T15:15:36;5.15;;;3.47;;
54177;SDS011;40085;53.004;6.770;2023-07-09T15:18:10;4.63;;;3.38;;
54177;SDS011;40085;53.004;6.770;2023-07-09T15:20:36;5.22;;;3.75;;
54177;SDS011;40085;53.004;6.770;2023-07-09T15:23:02;6.82;;;3.63;;
54177;SDS011;40085;53.004;6.770;2023-07-09T15:25:29;8.20;;;3.88;;
54177;SDS011;40085;53.004;6.770;2023-07-09T15:27:58;4.70;;;3.72;;
54177;SDS011;40085;53.004;6.770;2023-07-09T15:30:25;5.97;;;3.53;;
54177;SDS011;40085;53.004;6.770;2023-07-09T15:32:55;9.45;;;4.30;;
54177;SDS011;40085;53.004;6.770;2023-07-09T15:35:22;8.60;;;4.95;;
54177;SDS011;40085;53.004;6.770;2023-07-09T15:37:48;9.10;;;4.63;;
54177;SDS011;40085;53.004;6.770;2023-07-09T15:40:19;8.52;;;5.00;;
54177;SDS011;40085;53.004;6.770;2023-07-09T15:42:47;12.23;;;5.13;;
54177;SDS011;40085;53.004;6.770;2023-07-09T15:45:15;4.43;;;3.58;;
54177;SDS011;40085;53.004;6.770;2023-07-09T15:47:42;16.25;;;4.25;;
54177;SDS011;40085;53.004;6.770;2023-07-09T15:50:13;8.27;;;3.70;;
54177;SDS011;40085;53.004;6.770;2023-07-09T15:52:41;6.50;;;3.42;;
54177;SDS011;40085;53.004;6.770;2023-07-09T15:55:12;8.38;;;3.70;;